createdAt,value
2019-05-11T00:00:34.027Z,100.00
2019-05-11T00:03:02.425Z,100.00
2019-05-11T00:05:30.858Z,100.00
2019-05-11T00:07:59.267Z,100.00
2019-05-11T00:10:27.694Z,100.00
2019-05-11T00:12:56.097Z,100.00
2019-05-11T00:15:24.530Z,100.00
2019-05-11T00:17:52.951Z,100.00
2019-05-11T00:20:21.405Z,100.00
2019-05-11T00:22:49.811Z,100.00
2019-05-11T00:25:18.217Z,100.00
2019-05-11T00:27:46.650Z,100.00
2019-05-11T00:30:17.053Z,100.00
2019-05-11T00:32:45.487Z,100.00
2019-05-11T00:35:13.896Z,100.00
2019-05-11T00:37:42.327Z,100.00
2019-05-11T00:40:14.689Z,100.00
2019-05-11T00:42:41.553Z,100.00
2019-05-11T00:45:10.229Z,100.00
2019-05-11T00:47:38.658Z,100.00
2019-05-11T00:50:08.498Z,100.00
2019-05-11T00:52:36.938Z,100.00
2019-05-11T00:55:06.575Z,100.00
2019-05-11T00:57:35.070Z,100.00
2019-05-11T01:00:08.305Z,100.00
2019-05-11T01:02:43.356Z,100.00
2019-05-11T01:05:11.955Z,100.00
2019-05-11T01:07:40.330Z,100.00
2019-05-11T01:10:23.227Z,100.00
2019-05-11T01:12:38.966Z,100.00
2019-05-11T01:15:07.630Z,100.00
2019-05-11T01:17:36.057Z,100.00
2019-05-11T01:20:06.402Z,100.00
2019-05-11T01:22:34.832Z,100.00
2019-05-11T01:25:03.472Z,100.00
2019-05-11T01:27:32.889Z,100.00
2019-05-11T01:30:01.305Z,100.00
2019-05-11T01:32:29.750Z,100.00
2019-05-11T01:34:58.153Z,100.00
2019-05-11T01:37:26.549Z,100.00
2019-05-11T01:39:54.978Z,100.00
2019-05-11T01:42:23.387Z,100.00
2019-05-11T01:44:51.810Z,100.00
2019-05-11T01:47:20.216Z,100.00
2019-05-11T01:49:48.648Z,100.00
2019-05-11T01:52:17.052Z,100.00
2019-05-11T01:54:45.481Z,100.00
2019-05-11T01:57:13.883Z,100.00
2019-05-11T01:59:42.583Z,100.00
2019-05-11T02:02:10.993Z,100.00
2019-05-11T02:04:39.414Z,100.00
2019-05-11T02:07:07.893Z,100.00
2019-05-11T02:09:36.323Z,100.00
2019-05-11T02:12:04.732Z,100.00
2019-05-11T02:14:33.171Z,100.00
2019-05-11T02:17:01.581Z,100.00
2019-05-11T02:19:30.017Z,100.00
2019-05-11T02:21:58.419Z,100.00
2019-05-11T02:24:26.868Z,100.00
2019-05-11T02:26:55.275Z,100.00
2019-05-11T02:29:23.687Z,100.00
2019-05-11T02:31:52.123Z,100.00
2019-05-11T02:34:20.518Z,100.00
2019-05-11T02:36:48.950Z,100.00
2019-05-11T02:39:17.361Z,100.00
2019-05-11T02:41:45.791Z,100.00
2019-05-11T02:44:14.194Z,100.00
2019-05-11T02:46:42.622Z,100.00
2019-05-11T02:49:11.038Z,100.00
2019-05-11T02:51:39.740Z,100.00
2019-05-11T02:54:09.211Z,100.00
2019-05-11T02:56:37.641Z,100.00
2019-05-11T02:59:06.041Z,100.00
2019-05-11T03:01:34.468Z,100.00
2019-05-11T03:04:02.876Z,100.00
2019-05-11T03:06:31.304Z,100.00
2019-05-11T03:08:59.708Z,100.00
2019-05-11T03:11:28.144Z,100.00
2019-05-11T03:13:56.614Z,100.00
2019-05-11T03:16:25.043Z,100.00
2019-05-11T03:18:53.467Z,100.00
2019-05-11T03:21:21.887Z,100.00
2019-05-11T03:23:50.291Z,100.00
2019-05-11T03:26:18.721Z,100.00
2019-05-11T03:28:47.124Z,100.00
2019-05-11T03:31:15.557Z,100.00
2019-05-11T03:33:43.984Z,100.00
2019-05-11T03:36:12.401Z,100.00
2019-05-11T03:38:40.811Z,100.00
2019-05-11T03:41:09.212Z,100.00
2019-05-11T03:43:37.644Z,100.00
2019-05-11T03:46:06.065Z,100.00
2019-05-11T03:48:34.477Z,100.00
2019-05-11T03:51:02.878Z,100.00
2019-05-11T03:53:31.319Z,100.00
2019-05-11T03:55:59.719Z,100.00
2019-05-11T03:58:28.142Z,100.00
2019-05-11T04:00:56.640Z,100.00
2019-05-11T04:03:25.055Z,100.00
2019-05-11T04:05:53.454Z,100.00
2019-05-11T04:08:21.881Z,100.00
2019-05-11T04:10:50.295Z,100.00
2019-05-11T04:13:18.715Z,100.00
2019-05-11T04:15:47.165Z,100.00
2019-05-11T04:18:15.629Z,100.00
2019-05-11T04:20:44.038Z,100.00
2019-05-11T04:23:12.477Z,100.00
2019-05-11T04:25:40.882Z,100.00
2019-05-11T04:28:09.323Z,100.00
2019-05-11T04:30:37.721Z,100.00
2019-05-11T04:33:06.153Z,100.00
2019-05-11T04:35:34.633Z,100.00
2019-05-11T04:38:03.891Z,100.00
2019-05-11T04:40:32.289Z,100.00
2019-05-11T04:43:00.708Z,100.00
2019-05-11T04:45:29.154Z,100.00
2019-05-11T04:47:57.548Z,100.00
2019-05-11T04:50:25.986Z,100.00
2019-05-11T04:52:54.399Z,100.00
2019-05-11T04:55:22.838Z,100.00
2019-05-11T04:57:51.234Z,100.00
2019-05-11T05:00:19.665Z,100.00
2019-05-11T05:02:48.066Z,100.00
2019-05-11T05:05:16.499Z,100.00
2019-05-11T05:07:49.017Z,100.00
2019-05-11T05:10:19.943Z,100.00
2019-05-11T05:12:50.721Z,100.00
2019-05-11T05:15:15.555Z,100.00
2019-05-11T05:17:43.958Z,100.00
2019-05-11T05:20:12.757Z,100.00
2019-05-11T05:22:41.159Z,100.00
2019-05-11T05:25:09.592Z,100.00
2019-05-11T05:27:38.071Z,100.00
2019-05-11T05:30:07.301Z,100.00
2019-05-11T05:32:35.951Z,100.00
2019-05-11T05:35:05.619Z,100.00
2019-05-11T05:37:34.024Z,100.00
2019-05-11T05:40:02.522Z,100.00
2019-05-11T05:42:30.925Z,100.00
2019-05-11T05:44:59.354Z,100.00
2019-05-11T05:47:27.762Z,100.00
2019-05-11T05:49:56.226Z,100.00
2019-05-11T05:52:24.634Z,100.00
2019-05-11T05:54:53.039Z,100.00
2019-05-11T05:57:21.473Z,100.00
2019-05-11T05:59:49.877Z,100.00
2019-05-11T06:02:18.318Z,100.00
2019-05-11T06:04:46.720Z,100.00
2019-05-11T06:07:15.161Z,100.00
2019-05-11T06:09:43.563Z,100.00
2019-05-11T06:12:11.997Z,100.00
2019-05-11T06:14:40.392Z,100.00
2019-05-11T06:17:08.829Z,100.00
2019-05-11T06:19:37.233Z,100.00
2019-05-11T06:22:05.666Z,100.00
2019-05-11T06:24:34.073Z,100.00
2019-05-11T06:27:02.512Z,100.00
2019-05-11T06:29:30.918Z,100.00
2019-05-11T06:31:59.341Z,100.00
2019-05-11T06:34:27.746Z,100.00
2019-05-11T06:36:56.169Z,100.00
2019-05-11T06:39:24.577Z,100.00
2019-05-11T06:41:53.017Z,100.00
2019-05-11T06:44:21.407Z,100.00
2019-05-11T06:46:49.827Z,100.00
2019-05-11T06:49:18.235Z,100.00
2019-05-11T06:51:46.665Z,100.00
2019-05-11T06:54:15.070Z,100.00
2019-05-11T06:56:43.516Z,100.00
2019-05-11T06:59:11.998Z,100.00
2019-05-11T07:01:40.402Z,100.00
2019-05-11T07:04:08.829Z,100.00
2019-05-11T07:06:37.239Z,100.00
2019-05-11T07:09:07.474Z,100.00
2019-05-11T07:11:35.959Z,100.00
2019-05-11T07:14:19.079Z,100.00
2019-05-11T07:16:34.536Z,100.00
2019-05-11T07:19:02.953Z,100.00
2019-05-11T07:21:31.361Z,100.00
2019-05-11T07:23:59.825Z,100.00
2019-05-11T07:26:28.212Z,100.00
2019-05-11T07:28:56.650Z,100.00
2019-05-11T07:31:25.065Z,100.00
2019-05-11T07:33:53.497Z,100.00
2019-05-11T07:36:21.902Z,100.00
2019-05-11T07:38:50.339Z,100.00
2019-05-11T07:41:18.815Z,100.00
2019-05-11T07:43:48.448Z,100.00
2019-05-11T07:46:18.201Z,100.00
2019-05-11T07:48:47.965Z,100.00
2019-05-11T07:51:18.270Z,100.00
2019-05-11T07:53:48.617Z,100.00
2019-05-11T07:56:18.727Z,100.00
2019-05-11T07:58:48.070Z,99.85
2019-05-11T08:01:18.847Z,98.49
2019-05-11T08:03:48.327Z,99.51
2019-05-11T08:06:18.266Z,97.61
2019-05-11T08:08:49.024Z,96.31
2019-05-11T08:11:18.258Z,96.59
2019-05-11T08:13:48.089Z,93.53
2019-05-11T08:16:18.500Z,92.71
2019-05-11T08:18:48.097Z,91.51
2019-05-11T08:21:17.854Z,92.20
2019-05-11T08:23:48.377Z,92.63
2019-05-11T08:26:18.813Z,92.07
2019-05-11T08:28:48.584Z,89.48
2019-05-11T08:31:18.739Z,88.80
2019-05-11T08:33:48.002Z,88.00
2019-05-11T08:36:18.419Z,88.90
2019-05-11T08:38:48.282Z,90.34
2019-05-11T08:41:18.464Z,89.86
2019-05-11T08:43:48.069Z,89.71
2019-05-11T08:46:18.539Z,88.25
2019-05-11T08:48:47.913Z,90.72
2019-05-11T08:51:18.624Z,92.31
2019-05-11T08:53:48.079Z,91.20
2019-05-11T08:56:18.390Z,91.02
2019-05-11T08:58:49.037Z,90.91
2019-05-11T09:01:18.426Z,90.42
2019-05-11T09:03:47.797Z,89.71
2019-05-11T09:06:17.940Z,87.62
2019-05-11T09:08:49.119Z,86.35
2019-05-11T09:11:18.837Z,84.24
2019-05-11T09:13:48.834Z,84.91
2019-05-11T09:16:19.101Z,83.86
2019-05-11T09:18:47.962Z,80.78
2019-05-11T09:21:18.806Z,81.46
2019-05-11T09:23:48.580Z,81.14
2019-05-11T09:26:18.108Z,83.16
2019-05-11T09:28:47.602Z,82.96
2019-05-11T09:31:18.648Z,80.30
2019-05-11T09:33:48.054Z,79.08
2019-05-11T09:36:18.014Z,78.91
2019-05-11T09:38:48.951Z,79.48
2019-05-11T09:41:18.018Z,80.12
2019-05-11T09:43:48.290Z,79.00
2019-05-11T09:46:18.911Z,80.54
2019-05-11T09:48:48.362Z,80.82
2019-05-11T09:51:18.443Z,80.84
2019-05-11T09:53:48.331Z,82.91
2019-05-11T09:56:18.366Z,80.94
2019-05-11T09:58:47.924Z,79.17
2019-05-11T10:01:18.225Z,78.86
2019-05-11T10:03:48.161Z,79.79
2019-05-11T10:06:18.928Z,77.39
2019-05-11T10:08:48.754Z,76.86
2019-05-11T10:11:18.922Z,76.77
2019-05-11T10:13:47.865Z,76.73
2019-05-11T10:16:17.941Z,76.75
2019-05-11T10:18:48.915Z,78.06
2019-05-11T10:21:18.745Z,77.83
2019-05-11T10:23:48.980Z,77.64
2019-05-11T10:26:18.776Z,80.36
2019-05-11T10:28:48.123Z,80.23
2019-05-11T10:31:18.062Z,78.64
2019-05-11T10:33:48.976Z,77.62
2019-05-11T10:36:18.816Z,74.97
2019-05-11T10:38:48.690Z,79.70
2019-05-11T10:41:18.076Z,76.24
2019-05-11T10:43:48.868Z,75.07
2019-05-11T10:46:23.063Z,75.24
2019-05-11T10:48:48.334Z,74.69
2019-05-11T10:51:18.444Z,72.08
2019-05-11T10:53:51.369Z,71.72
2019-05-11T10:56:17.859Z,69.57
2019-05-11T10:58:48.283Z,70.13
2019-05-11T11:01:18.242Z,72.47
2019-05-11T11:03:48.364Z,73.23
2019-05-11T11:06:18.848Z,72.76
2019-05-11T11:08:48.729Z,69.62
2019-05-11T11:11:18.473Z,74.66
2019-05-11T11:13:48.068Z,72.62
2019-05-11T11:16:34.662Z,73.55
2019-05-11T11:18:48.579Z,70.80
2019-05-11T11:21:22.077Z,70.41
2019-05-11T11:23:48.030Z,69.05
2019-05-11T11:26:18.409Z,69.58
2019-05-11T11:28:47.806Z,72.89
2019-05-11T11:31:18.524Z,72.36
2019-05-11T11:33:48.902Z,72.42
2019-05-11T11:36:17.973Z,72.65
2019-05-11T11:38:47.766Z,69.74
2019-05-11T11:41:18.501Z,68.92
2019-05-11T11:43:48.348Z,68.64
2019-05-11T11:46:18.809Z,71.03
2019-05-11T11:48:48.902Z,69.94
2019-05-11T11:51:18.701Z,72.52
2019-05-11T11:53:47.931Z,70.02
2019-05-11T11:56:18.848Z,69.01
2019-05-11T11:58:48.728Z,72.56
2019-05-11T12:01:18.870Z,67.50
2019-05-11T12:03:48.741Z,67.80
2019-05-11T12:06:18.218Z,65.04
2019-05-11T12:08:49.368Z,66.70
2019-05-11T12:11:18.656Z,67.33
2019-05-11T12:13:47.623Z,65.50
2019-05-11T12:16:18.025Z,67.55
2019-05-11T12:18:48.555Z,68.01
2019-05-11T12:21:18.575Z,68.47
2019-05-11T12:23:48.585Z,71.52
2019-05-11T12:26:17.726Z,69.15
2019-05-11T12:28:48.771Z,67.69
2019-05-11T12:31:18.416Z,67.51
2019-05-11T12:33:48.314Z,72.15
2019-05-11T12:36:18.842Z,68.18
2019-05-11T12:38:48.937Z,67.97
2019-05-11T12:41:18.966Z,70.06
2019-05-11T12:43:48.850Z,69.01
2019-05-11T12:46:18.896Z,68.52
2019-05-11T12:48:48.561Z,67.82
2019-05-11T12:51:18.611Z,67.68
2019-05-11T12:53:47.743Z,64.72
2019-05-11T12:56:18.761Z,63.25
2019-05-11T12:58:48.945Z,66.04
2019-05-11T13:01:18.744Z,67.87
2019-05-11T13:03:48.999Z,62.88
2019-05-11T13:06:19.054Z,60.56
2019-05-11T13:08:48.080Z,63.86
2019-05-11T13:11:18.633Z,61.90
2019-05-11T13:13:48.396Z,62.61
2019-05-11T13:16:18.383Z,63.06
2019-05-11T13:18:48.854Z,60.96
2019-05-11T13:21:18.305Z,61.05
2019-05-11T13:23:48.960Z,61.17
2019-05-11T13:26:17.998Z,59.77
2019-05-11T13:28:48.419Z,62.75
2019-05-11T13:31:18.586Z,62.53
2019-05-11T13:33:47.995Z,60.26
2019-05-11T13:36:18.583Z,56.84
2019-05-11T13:38:48.239Z,59.15
2019-05-11T13:41:18.755Z,60.25
2019-05-11T13:43:48.659Z,56.20
2019-05-11T13:46:18.011Z,56.60
2019-05-11T13:48:47.665Z,55.86
2019-05-11T13:51:18.285Z,57.49
2019-05-11T13:53:48.245Z,55.99
2019-05-11T13:56:18.365Z,55.37
2019-05-11T13:58:48.728Z,55.34
2019-05-11T14:01:18.507Z,57.82
2019-05-11T14:03:48.360Z,55.53
2019-05-11T14:06:18.458Z,51.75
2019-05-11T14:08:48.162Z,53.79
2019-05-11T14:11:18.171Z,54.28
2019-05-11T14:13:47.966Z,54.77
2019-05-11T14:16:18.663Z,54.88
2019-05-11T14:18:48.837Z,54.38
2019-05-11T14:21:18.581Z,53.44
2019-05-11T14:23:48.428Z,56.07
2019-05-11T14:26:19.147Z,53.58
2019-05-11T14:28:48.122Z,52.24
2019-05-11T14:31:18.966Z,51.00
2019-05-11T14:33:48.869Z,50.97
2019-05-11T14:36:18.308Z,54.25
2019-05-11T14:38:48.679Z,55.19
2019-05-11T14:41:18.173Z,53.40
2019-05-11T14:43:48.970Z,53.78
2019-05-11T14:46:18.089Z,53.03
2019-05-11T14:48:48.144Z,55.93
2019-05-11T14:51:17.959Z,54.11
2019-05-11T14:53:48.208Z,51.44
2019-05-11T14:56:18.904Z,50.78
2019-05-11T14:58:49.007Z,49.91
2019-05-11T15:01:18.369Z,49.40
2019-05-11T15:03:48.600Z,48.19
2019-05-11T15:06:18.912Z,47.32
2019-05-11T15:08:47.984Z,50.75
2019-05-11T15:11:18.874Z,49.79
2019-05-11T15:13:48.727Z,48.57
2019-05-11T15:16:18.645Z,49.13
2019-05-11T15:18:48.566Z,49.48
2019-05-11T15:21:18.954Z,49.57
2019-05-11T15:23:47.738Z,49.86
2019-05-11T15:26:18.477Z,48.40
2019-05-11T15:28:48.704Z,49.29
2019-05-11T15:31:21.934Z,49.09
2019-05-11T15:33:48.896Z,52.69
2019-05-11T15:36:19.040Z,50.84
2019-05-11T15:38:48.128Z,50.88
2019-05-11T15:41:17.718Z,50.70
2019-05-11T15:43:47.939Z,49.23
2019-05-11T15:46:19.372Z,50.54
2019-05-11T15:48:56.608Z,47.58
2019-05-11T15:51:18.738Z,49.53
2019-05-11T15:53:47.650Z,48.66
2019-05-11T15:56:18.991Z,51.73
2019-05-11T15:58:48.563Z,52.37
2019-05-11T16:01:18.561Z,53.06
2019-05-11T16:03:49.707Z,51.87
2019-05-11T16:06:18.510Z,53.78
2019-05-11T16:08:47.318Z,52.28
2019-05-11T16:11:18.013Z,53.15
2019-05-11T16:13:48.229Z,52.14
2019-05-11T16:16:16.074Z,52.74
2019-05-11T16:18:44.475Z,54.29
2019-05-11T16:21:12.906Z,54.18
2019-05-11T16:23:41.322Z,55.78
2019-05-11T16:26:09.742Z,56.09
2019-05-11T16:28:38.442Z,56.51
2019-05-11T16:31:09.076Z,55.37
2019-05-11T16:33:37.086Z,56.19
2019-05-11T16:36:05.580Z,56.34
2019-05-11T16:38:33.993Z,55.87
2019-05-11T16:41:02.421Z,56.93
2019-05-11T16:43:30.829Z,56.66
2019-05-11T16:45:59.255Z,55.31
2019-05-11T16:48:27.819Z,54.29
2019-05-11T16:50:57.977Z,53.12
2019-05-11T16:53:28.422Z,51.63
2019-05-11T16:55:57.695Z,52.26
2019-05-11T16:58:27.874Z,50.97
2019-05-11T17:00:58.227Z,50.91
2019-05-11T17:03:27.876Z,48.37
2019-05-11T17:05:58.669Z,50.32
2019-05-11T17:08:27.692Z,48.33
2019-05-11T17:10:59.592Z,46.68
2019-05-11T17:13:28.135Z,46.59
2019-05-11T17:15:58.345Z,47.56
2019-05-11T17:18:28.266Z,46.64
2019-05-11T17:20:58.417Z,46.87
2019-05-11T17:23:31.006Z,46.54
2019-05-11T17:25:58.018Z,47.17
2019-05-11T17:28:26.641Z,48.61
2019-05-11T17:30:55.053Z,49.38
2019-05-11T17:33:23.484Z,48.58
2019-05-11T17:35:51.892Z,48.80
2019-05-11T17:38:20.320Z,49.29
2019-05-11T17:40:48.730Z,49.87
2019-05-11T17:43:18.159Z,51.73
2019-05-11T17:45:47.994Z,52.09
2019-05-11T17:48:17.823Z,52.38
2019-05-11T17:50:46.404Z,51.84
2019-05-11T17:53:14.835Z,50.54
2019-05-11T17:55:43.238Z,48.51
2019-05-11T17:58:11.670Z,47.10
2019-05-11T18:00:40.096Z,46.69
2019-05-11T18:03:11.437Z,46.45
2019-05-11T18:05:38.716Z,46.33
2019-05-11T18:08:08.688Z,46.96
2019-05-11T18:10:38.433Z,47.88
2019-05-11T18:13:07.112Z,47.45
2019-05-11T18:15:37.867Z,46.99
2019-05-11T18:18:05.819Z,46.53
2019-05-11T18:20:34.234Z,47.82
2019-05-11T18:23:02.638Z,47.52
2019-05-11T18:25:31.137Z,48.16
2019-05-11T18:27:59.538Z,49.31
2019-05-11T18:30:29.315Z,49.89
2019-05-11T18:32:59.492Z,50.93
2019-05-11T18:35:28.083Z,51.39
2019-05-11T18:37:56.493Z,52.60
2019-05-11T18:40:24.924Z,54.13
2019-05-11T18:42:53.322Z,55.38
2019-05-11T18:45:21.758Z,56.25
2019-05-11T18:47:50.162Z,57.67
2019-05-11T18:50:30.143Z,59.05
2019-05-11T18:52:49.354Z,61.15
2019-05-11T18:55:18.982Z,63.21
2019-05-11T18:57:49.223Z,64.85
2019-05-11T19:00:18.506Z,66.73
2019-05-11T19:02:49.310Z,70.01
2019-05-11T19:05:18.031Z,72.98
2019-05-11T19:07:48.161Z,75.48
2019-05-11T19:10:16.959Z,77.79
2019-05-11T19:12:45.361Z,77.38
2019-05-11T19:15:13.853Z,79.19
2019-05-11T19:17:42.335Z,82.00
2019-05-11T19:20:10.993Z,82.52
2019-05-11T19:22:39.489Z,83.81
2019-05-11T19:25:09.044Z,87.78
2019-05-11T19:27:37.832Z,92.00
2019-05-11T19:30:08.199Z,94.46
2019-05-11T19:32:38.292Z,96.57
2019-05-11T19:35:08.838Z,97.12
2019-05-11T19:37:38.920Z,98.79
2019-05-11T19:40:09.164Z,100.00
2019-05-11T19:42:54.055Z,100.00
2019-05-11T19:45:23.083Z,100.00
2019-05-11T19:47:51.518Z,100.00
2019-05-11T19:50:19.990Z,100.00
2019-05-11T19:52:48.420Z,100.00
2019-05-11T19:55:17.946Z,100.00
2019-05-11T19:57:48.200Z,100.00
2019-05-11T20:00:18.674Z,100.00
2019-05-11T20:02:47.196Z,100.00
2019-05-11T20:05:18.171Z,100.00
2019-05-11T20:07:48.307Z,100.00
2019-05-11T20:10:18.572Z,100.00
2019-05-11T20:12:48.094Z,100.00
2019-05-11T20:15:18.453Z,100.00
2019-05-11T20:17:48.755Z,100.00
2019-05-11T20:20:18.308Z,100.00
2019-05-11T20:22:48.224Z,100.00
2019-05-11T20:25:18.696Z,100.00
2019-05-11T20:27:48.378Z,100.00
2019-05-11T20:30:18.302Z,100.00
2019-05-11T20:32:48.529Z,100.00
2019-05-11T20:35:17.499Z,100.00
2019-05-11T20:37:45.901Z,100.00
2019-05-11T20:40:14.471Z,100.00
2019-05-11T20:42:42.869Z,100.00
2019-05-11T20:45:11.368Z,100.00
2019-05-11T20:47:39.767Z,100.00
2019-05-11T20:50:08.385Z,100.00
2019-05-11T20:52:38.950Z,100.00
2019-05-11T20:55:08.956Z,100.00
2019-05-11T20:57:39.285Z,100.00
2019-05-11T21:00:10.794Z,100.00
2019-05-11T21:02:39.194Z,100.00
2019-05-11T21:05:09.000Z,100.00
2019-05-11T21:07:38.800Z,100.00
2019-05-11T21:10:08.771Z,100.00
2019-05-11T21:12:38.573Z,100.00
2019-05-11T21:15:09.197Z,100.00
2019-05-11T21:17:37.600Z,100.00
2019-05-11T21:20:09.476Z,100.00
2019-05-11T21:22:40.449Z,100.00
2019-05-11T21:25:09.223Z,100.00
2019-05-11T21:27:38.400Z,100.00
2019-05-11T21:30:09.718Z,100.00
2019-05-11T21:32:39.281Z,100.00
2019-05-11T21:35:09.062Z,100.00
2019-05-11T21:37:38.759Z,100.00
2019-05-11T21:40:08.541Z,100.00
2019-05-11T21:42:38.995Z,100.00
2019-05-11T21:45:09.453Z,100.00
2019-05-11T21:47:39.107Z,100.00
2019-05-11T21:50:09.057Z,100.00
2019-05-11T21:52:38.591Z,100.00
2019-05-11T21:55:09.327Z,100.00
2019-05-11T21:57:37.970Z,100.00
2019-05-11T22:00:08.766Z,100.00
2019-05-11T22:02:38.541Z,100.00
2019-05-11T22:05:08.354Z,100.00
2019-05-11T22:07:38.928Z,100.00
2019-05-11T22:10:08.984Z,100.00
2019-05-11T22:12:38.802Z,100.00
2019-05-11T22:15:10.837Z,100.00
2019-05-11T22:17:39.921Z,100.00
2019-05-11T22:20:09.244Z,100.00
2019-05-11T22:22:39.111Z,100.00
2019-05-11T22:25:08.731Z,100.00
2019-05-11T22:27:38.733Z,100.00
2019-05-11T22:30:08.463Z,100.00
2019-05-11T22:32:38.455Z,100.00
2019-05-11T22:35:08.460Z,100.00
2019-05-11T22:37:38.595Z,100.00
2019-05-11T22:40:08.687Z,100.00
2019-05-11T22:42:37.296Z,100.00
2019-05-11T22:45:08.596Z,100.00
2019-05-11T22:47:39.400Z,100.00
2019-05-11T22:50:08.139Z,100.00
2019-05-11T22:52:39.774Z,100.00
2019-05-11T22:55:11.092Z,100.00
2019-05-11T22:57:38.096Z,100.00
2019-05-11T23:00:10.428Z,100.00
2019-05-11T23:02:39.129Z,100.00
2019-05-11T23:05:08.480Z,100.00
2019-05-11T23:07:41.221Z,100.00
2019-05-11T23:10:09.236Z,100.00
2019-05-11T23:12:38.242Z,100.00
2019-05-11T23:15:13.300Z,100.00
2019-05-11T23:17:42.039Z,100.00
2019-05-11T23:20:11.009Z,100.00
2019-05-11T23:22:56.754Z,100.00
2019-05-11T23:25:18.988Z,100.00
2019-05-11T23:27:48.525Z,100.00
2019-05-11T23:30:19.775Z,100.00
2019-05-11T23:32:48.877Z,100.00
2019-05-11T23:35:18.795Z,100.00
2019-05-11T23:37:49.649Z,100.00
2019-05-11T23:40:19.006Z,100.00
2019-05-11T23:42:49.097Z,100.00
2019-05-11T23:45:18.927Z,100.00
2019-05-11T23:47:48.716Z,100.00
2019-05-11T23:50:19.339Z,100.00
2019-05-11T23:52:50.162Z,100.00
2019-05-11T23:55:18.991Z,100.00
2019-05-11T23:57:48.690Z,100.00
